sensor_id;sensor_type;location;lat;lon;timestamp;P1;durP1;ratioP1;P2;durP2;ratioP2
44784;SDS011;30507;53.160;8.210;2023-05-10T00:00:49;0.90;;;0.90;;
44784;SDS011;30507;53.160;8.210;2023-05-10T00:03:14;0.90;;;0.90;;
44784;SDS011;30507;53.160;8.210;2023-05-10T00:05:39;0.90;;;0.90;;
44784;SDS011;30507;53.160;8.210;2023-05-10T00:08:05;0.63;;;0.63;;
44784;SDS011;30507;53.160;8.210;2023-05-10T00:10:30;0.80;;;0.80;;
44784;SDS011;30507;53.160;8.210;2023-05-10T00:12:55;0.90;;;0.90;;
44784;SDS011;30507;53.160;8.210;2023-05-10T00:15:20;0.90;;;0.90;;
44784;SDS011;30507;53.160;8.210;2023-05-10T00:17:45;0.43;;;0.43;;
44784;SDS011;30507;53.160;8.210;2023-05-10T00:20:11;0.77;;;0.77;;
44784;SDS011;30507;53.160;8.210;2023-05-10T00:22:36;0.63;;;0.63;;
44784;SDS011;30507;53.160;8.210;2023-05-10T00:25:01;0.50;;;0.50;;
44784;SDS011;30507;53.160;8.210;2023-05-10T00:27:26;1.00;;;1.00;;
44784;SDS011;30507;53.160;8.210;2023-05-10T00:29:51;0.95;;;0.95;;
44784;SDS011;30507;53.160;8.210;2023-05-10T00:32:17;0.80;;;0.80;;
44784;SDS011;30507;53.160;8.210;2023-05-10T00:34:42;0.75;;;0.75;;
44784;SDS011;30507;53.160;8.210;2023-05-10T00:37:07;0.70;;;0.70;;
44784;SDS011;30507;53.160;8.210;2023-05-10T00:39:32;0.50;;;0.50;;
44784;SDS011;30507;53.160;8.210;2023-05-10T00:41:57;0.75;;;0.75;;
44784;SDS011;30507;53.160;8.210;2023-05-10T00:44:22;0.80;;;0.80;;
44784;SDS011;30507;53.160;8.210;2023-05-10T00:46:48;0.70;;;0.70;;
44784;SDS011;30507;53.160;8.210;2023-05-10T00:49:14;0.65;;;0.65;;
44784;SDS011;30507;53.160;8.210;2023-05-10T00:51:39;0.80;;;0.80;;
44784;SDS011;30507;53.160;8.210;2023-05-10T00:54:04;0.57;;;0.57;;
44784;SDS011;30507;53.160;8.210;2023-05-10T00:56:30;0.73;;;0.73;;
44784;SDS011;30507;53.160;8.210;2023-05-10T00:58:55;0.90;;;0.90;;
44784;SDS011;30507;53.160;8.210;2023-05-10T01:01:20;0.97;;;0.87;;
44784;SDS011;30507;53.160;8.210;2023-05-10T01:03:46;0.45;;;0.45;;
44784;SDS011;30507;53.160;8.210;2023-05-10T01:06:12;0.82;;;0.80;;
44784;SDS011;30507;53.160;8.210;2023-05-10T01:08:37;0.50;;;0.50;;
44784;SDS011;30507;53.160;8.210;2023-05-10T01:11:02;0.40;;;0.40;;
44784;SDS011;30507;53.160;8.210;2023-05-10T01:13:32;0.67;;;0.67;;
44784;SDS011;30507;53.160;8.210;2023-05-10T01:15:58;0.60;;;0.60;;
44784;SDS011;30507;53.160;8.210;2023-05-10T01:18:24;0.80;;;0.80;;
44784;SDS011;30507;53.160;8.210;2023-05-10T01:20:53;0.68;;;0.68;;
44784;SDS011;30507;53.160;8.210;2023-05-10T01:23:30;0.60;;;0.60;;
44784;SDS011;30507;53.160;8.210;2023-05-10T01:26:19;0.68;;;0.68;;
44784;SDS011;30507;53.160;8.210;2023-05-10T01:31:18;0.60;;;0.60;;
44784;SDS011;30507;53.160;8.210;2023-05-10T01:33:52;0.60;;;0.60;;
44784;SDS011;30507;53.160;8.210;2023-05-10T01:36:21;0.70;;;0.70;;
44784;SDS011;30507;53.160;8.210;2023-05-10T01:41:36;0.65;;;0.65;;
44784;SDS011;30507;53.160;8.210;2023-05-10T01:44:10;0.60;;;0.60;;
44784;SDS011;30507;53.160;8.210;2023-05-10T01:46:37;0.70;;;0.70;;
44784;SDS011;30507;53.160;8.210;2023-05-10T01:49:03;0.52;;;0.52;;
44784;SDS011;30507;53.160;8.210;2023-05-10T01:51:35;0.70;;;0.70;;
44784;SDS011;30507;53.160;8.210;2023-05-10T01:54:02;0.85;;;0.85;;
44784;SDS011;30507;53.160;8.210;2023-05-10T01:56:28;0.50;;;0.50;;
44784;SDS011;30507;53.160;8.210;2023-05-10T01:58:54;0.47;;;0.47;;
44784;SDS011;30507;53.160;8.210;2023-05-10T02:01:20;0.50;;;0.50;;
44784;SDS011;30507;53.160;8.210;2023-05-10T02:03:46;0.60;;;0.60;;
44784;SDS011;30507;53.160;8.210;2023-05-10T02:06:12;0.50;;;0.50;;
44784;SDS011;30507;53.160;8.210;2023-05-10T02:08:38;0.50;;;0.50;;
44784;SDS011;30507;53.160;8.210;2023-05-10T02:11:04;0.60;;;0.60;;
44784;SDS011;30507;53.160;8.210;2023-05-10T02:13:30;0.52;;;0.52;;
44784;SDS011;30507;53.160;8.210;2023-05-10T02:15:56;0.73;;;0.73;;
44784;SDS011;30507;53.160;8.210;2023-05-10T02:18:22;0.60;;;0.60;;
44784;SDS011;30507;53.160;8.210;2023-05-10T02:20:48;0.57;;;0.57;;
44784;SDS011;30507;53.160;8.210;2023-05-10T02:23:13;0.60;;;0.60;;
44784;SDS011;30507;53.160;8.210;2023-05-10T02:25:39;0.57;;;0.57;;
44784;SDS011;30507;53.160;8.210;2023-05-10T02:28:05;0.65;;;0.65;;
44784;SDS011;30507;53.160;8.210;2023-05-10T02:30:31;0.47;;;0.47;;
44784;SDS011;30507;53.160;8.210;2023-05-10T02:32:57;0.50;;;0.50;;
44784;SDS011;30507;53.160;8.210;2023-05-10T02:35:23;0.52;;;0.52;;
44784;SDS011;30507;53.160;8.210;2023-05-10T02:37:50;0.60;;;0.60;;
44784;SDS011;30507;53.160;8.210;2023-05-10T02:40:16;0.55;;;0.55;;
44784;SDS011;30507;53.160;8.210;2023-05-10T02:42:42;0.60;;;0.60;;
44784;SDS011;30507;53.160;8.210;2023-05-10T02:45:12;0.60;;;0.60;;
44784;SDS011;30507;53.160;8.210;2023-05-10T02:47:38;0.60;;;0.60;;
44784;SDS011;30507;53.160;8.210;2023-05-10T02:50:03;0.40;;;0.40;;
44784;SDS011;30507;53.160;8.210;2023-05-10T02:52:29;0.45;;;0.45;;
44784;SDS011;30507;53.160;8.210;2023-05-10T02:54:56;1.02;;;0.88;;
44784;SDS011;30507;53.160;8.210;2023-05-10T02:57:25;0.50;;;0.50;;
44784;SDS011;30507;53.160;8.210;2023-05-10T02:59:51;1.02;;;1.00;;
44784;SDS011;30507;53.160;8.210;2023-05-10T03:02:16;0.65;;;0.65;;
44784;SDS011;30507;53.160;8.210;2023-05-10T03:04:41;0.70;;;0.70;;
44784;SDS011;30507;53.160;8.210;2023-05-10T03:07:07;0.60;;;0.60;;
44784;SDS011;30507;53.160;8.210;2023-05-10T03:09:32;0.80;;;0.80;;
44784;SDS011;30507;53.160;8.210;2023-05-10T03:12:03;0.83;;;0.83;;
44784;SDS011;30507;53.160;8.210;2023-05-10T03:14:48;0.82;;;0.82;;
44784;SDS011;30507;53.160;8.210;2023-05-10T03:17:21;1.00;;;1.00;;
44784;SDS011;30507;53.160;8.210;2023-05-10T03:19:52;0.73;;;0.73;;
44784;SDS011;30507;53.160;8.210;2023-05-10T03:22:23;0.90;;;0.90;;
44784;SDS011;30507;53.160;8.210;2023-05-10T03:24:49;0.70;;;0.70;;
44784;SDS011;30507;53.160;8.210;2023-05-10T03:27:14;0.53;;;0.53;;
44784;SDS011;30507;53.160;8.210;2023-05-10T03:29:39;0.70;;;0.70;;
44784;SDS011;30507;53.160;8.210;2023-05-10T03:32:05;0.70;;;0.70;;
44784;SDS011;30507;53.160;8.210;2023-05-10T03:34:30;0.50;;;0.50;;
44784;SDS011;30507;53.160;8.210;2023-05-10T03:36:56;0.52;;;0.52;;
44784;SDS011;30507;53.160;8.210;2023-05-10T03:39:21;0.50;;;0.50;;
44784;SDS011;30507;53.160;8.210;2023-05-10T03:41:46;0.60;;;0.60;;
44784;SDS011;30507;53.160;8.210;2023-05-10T03:44:12;0.80;;;0.80;;
44784;SDS011;30507;53.160;8.210;2023-05-10T03:46:37;0.70;;;0.70;;
44784;SDS011;30507;53.160;8.210;2023-05-10T03:49:02;0.82;;;0.82;;
44784;SDS011;30507;53.160;8.210;2023-05-10T03:51:27;0.70;;;0.70;;
44784;SDS011;30507;53.160;8.210;2023-05-10T03:53:53;0.77;;;0.77;;
44784;SDS011;30507;53.160;8.210;2023-05-10T03:56:18;0.77;;;0.77;;
44784;SDS011;30507;53.160;8.210;2023-05-10T03:58:43;0.50;;;0.50;;
44784;SDS011;30507;53.160;8.210;2023-05-10T04:01:08;0.50;;;0.50;;
44784;SDS011;30507;53.160;8.210;2023-05-10T04:03:34;0.82;;;0.82;;
44784;SDS011;30507;53.160;8.210;2023-05-10T04:06:01;0.50;;;0.50;;
44784;SDS011;30507;53.160;8.210;2023-05-10T04:08:26;0.60;;;0.60;;
44784;SDS011;30507;53.160;8.210;2023-05-10T04:10:52;0.60;;;0.60;;
44784;SDS011;30507;53.160;8.210;2023-05-10T04:13:17;0.47;;;0.47;;
44784;SDS011;30507;53.160;8.210;2023-05-10T04:15:42;0.53;;;0.53;;
44784;SDS011;30507;53.160;8.210;2023-05-10T04:18:08;0.50;;;0.50;;
44784;SDS011;30507;53.160;8.210;2023-05-10T04:20:33;0.63;;;0.60;;
44784;SDS011;30507;53.160;8.210;2023-05-10T04:22:58;0.60;;;0.60;;
44784;SDS011;30507;53.160;8.210;2023-05-10T04:25:24;0.50;;;0.50;;
44784;SDS011;30507;53.160;8.210;2023-05-10T04:27:49;0.50;;;0.50;;
44784;SDS011;30507;53.160;8.210;2023-05-10T04:30:14;0.57;;;0.57;;
44784;SDS011;30507;53.160;8.210;2023-05-10T04:32:39;1.43;;;0.90;;
44784;SDS011;30507;53.160;8.210;2023-05-10T04:35:04;0.50;;;0.50;;
44784;SDS011;30507;53.160;8.210;2023-05-10T04:37:30;0.50;;;0.50;;
44784;SDS011;30507;53.160;8.210;2023-05-10T04:39:55;0.83;;;0.80;;
44784;SDS011;30507;53.160;8.210;2023-05-10T04:42:20;1.20;;;0.82;;
44784;SDS011;30507;53.160;8.210;2023-05-10T04:44:45;1.63;;;0.80;;
44784;SDS011;30507;53.160;8.210;2023-05-10T04:47:10;0.57;;;0.57;;
44784;SDS011;30507;53.160;8.210;2023-05-10T04:49:37;0.82;;;0.82;;
44784;SDS011;30507;53.160;8.210;2023-05-10T04:52:02;1.20;;;1.10;;
44784;SDS011;30507;53.160;8.210;2023-05-10T04:54:27;0.63;;;0.63;;
44784;SDS011;30507;53.160;8.210;2023-05-10T04:56:52;0.77;;;0.77;;
44784;SDS011;30507;53.160;8.210;2023-05-10T04:59:18;0.80;;;0.80;;
44784;SDS011;30507;53.160;8.210;2023-05-10T05:01:43;1.10;;;0.88;;
44784;SDS011;30507;53.160;8.210;2023-05-10T05:04:08;2.43;;;0.63;;
44784;SDS011;30507;53.160;8.210;2023-05-10T05:06:33;0.60;;;0.60;;
44784;SDS011;30507;53.160;8.210;2023-05-10T05:08:59;0.50;;;0.50;;
44784;SDS011;30507;53.160;8.210;2023-05-10T05:11:24;0.57;;;0.57;;
44784;SDS011;30507;53.160;8.210;2023-05-10T05:13:50;0.40;;;0.40;;
44784;SDS011;30507;53.160;8.210;2023-05-10T05:16:15;0.50;;;0.50;;
44784;SDS011;30507;53.160;8.210;2023-05-10T05:18:40;0.50;;;0.50;;
44784;SDS011;30507;53.160;8.210;2023-05-10T05:21:15;0.43;;;0.43;;
44784;SDS011;30507;53.160;8.210;2023-05-10T05:23:41;0.43;;;0.43;;
44784;SDS011;30507;53.160;8.210;2023-05-10T05:26:06;0.30;;;0.30;;
44784;SDS011;30507;53.160;8.210;2023-05-10T05:28:31;0.50;;;0.50;;
44784;SDS011;30507;53.160;8.210;2023-05-10T05:30:58;1.87;;;0.40;;
44784;SDS011;30507;53.160;8.210;2023-05-10T05:33:24;0.65;;;0.45;;
44784;SDS011;30507;53.160;8.210;2023-05-10T05:35:49;0.30;;;0.30;;
44784;SDS011;30507;53.160;8.210;2023-05-10T05:38:15;0.28;;;0.28;;
44784;SDS011;30507;53.160;8.210;2023-05-10T05:40:41;0.50;;;0.43;;
44784;SDS011;30507;53.160;8.210;2023-05-10T05:43:06;0.50;;;0.50;;
44784;SDS011;30507;53.160;8.210;2023-05-10T05:45:31;0.43;;;0.43;;
44784;SDS011;30507;53.160;8.210;2023-05-10T05:47:56;1.63;;;0.40;;
44784;SDS011;30507;53.160;8.210;2023-05-10T05:50:21;1.58;;;0.30;;
44784;SDS011;30507;53.160;8.210;2023-05-10T05:52:46;0.27;;;0.27;;
44784;SDS011;30507;53.160;8.210;2023-05-10T05:55:11;0.73;;;0.30;;
44784;SDS011;30507;53.160;8.210;2023-05-10T05:57:37;0.40;;;0.40;;
44784;SDS011;30507;53.160;8.210;2023-05-10T06:00:02;0.52;;;0.28;;
44784;SDS011;30507;53.160;8.210;2023-05-10T06:02:27;0.20;;;0.20;;
44784;SDS011;30507;53.160;8.210;2023-05-10T06:04:53;1.63;;;0.30;;
44784;SDS011;30507;53.160;8.210;2023-05-10T06:07:18;0.40;;;0.40;;
44784;SDS011;30507;53.160;8.210;2023-05-10T06:09:43;0.30;;;0.30;;
44784;SDS011;30507;53.160;8.210;2023-05-10T06:12:08;0.40;;;0.33;;
44784;SDS011;30507;53.160;8.210;2023-05-10T06:14:33;0.40;;;0.40;;
44784;SDS011;30507;53.160;8.210;2023-05-10T06:16:58;0.37;;;0.37;;
44784;SDS011;30507;53.160;8.210;2023-05-10T06:19:24;0.38;;;0.38;;
44784;SDS011;30507;53.160;8.210;2023-05-10T06:21:51;0.30;;;0.30;;
44784;SDS011;30507;53.160;8.210;2023-05-10T06:24:16;0.30;;;0.30;;
44784;SDS011;30507;53.160;8.210;2023-05-10T06:26:41;0.37;;;0.37;;
44784;SDS011;30507;53.160;8.210;2023-05-10T06:29:06;0.40;;;0.40;;
44784;SDS011;30507;53.160;8.210;2023-05-10T06:31:31;0.35;;;0.35;;
44784;SDS011;30507;53.160;8.210;2023-05-10T06:33:56;0.28;;;0.28;;
44784;SDS011;30507;53.160;8.210;2023-05-10T06:36:22;0.40;;;0.40;;
44784;SDS011;30507;53.160;8.210;2023-05-10T06:38:49;0.40;;;0.40;;
44784;SDS011;30507;53.160;8.210;2023-05-10T06:41:16;0.45;;;0.45;;
44784;SDS011;30507;53.160;8.210;2023-05-10T06:43:41;0.50;;;0.50;;
44784;SDS011;30507;53.160;8.210;2023-05-10T06:46:08;0.30;;;0.30;;
44784;SDS011;30507;53.160;8.210;2023-05-10T06:48:33;0.20;;;0.20;;
44784;SDS011;30507;53.160;8.210;2023-05-10T06:50:58;0.20;;;0.20;;
44784;SDS011;30507;53.160;8.210;2023-05-10T06:53:24;0.32;;;0.32;;
44784;SDS011;30507;53.160;8.210;2023-05-10T06:55:49;0.63;;;0.63;;
44784;SDS011;30507;53.160;8.210;2023-05-10T06:58:14;0.28;;;0.25;;
44784;SDS011;30507;53.160;8.210;2023-05-10T07:00:39;0.20;;;0.20;;
44784;SDS011;30507;53.160;8.210;2023-05-10T07:03:07;0.20;;;0.20;;
44784;SDS011;30507;53.160;8.210;2023-05-10T07:05:32;0.25;;;0.25;;
44784;SDS011;30507;53.160;8.210;2023-05-10T07:07:57;0.17;;;0.17;;
44784;SDS011;30507;53.160;8.210;2023-05-10T07:10:23;0.20;;;0.20;;
44784;SDS011;30507;53.160;8.210;2023-05-10T07:12:48;0.40;;;0.40;;
44784;SDS011;30507;53.160;8.210;2023-05-10T07:15:13;0.30;;;0.30;;
44784;SDS011;30507;53.160;8.210;2023-05-10T07:17:38;0.10;;;0.10;;
44784;SDS011;30507;53.160;8.210;2023-05-10T07:20:03;0.20;;;0.20;;
44784;SDS011;30507;53.160;8.210;2023-05-10T07:22:28;0.63;;;0.30;;
44784;SDS011;30507;53.160;8.210;2023-05-10T07:24:54;0.30;;;0.30;;
44784;SDS011;30507;53.160;8.210;2023-05-10T07:27:19;0.30;;;0.30;;
44784;SDS011;30507;53.160;8.210;2023-05-10T07:29:44;0.20;;;0.20;;
44784;SDS011;30507;53.160;8.210;2023-05-10T07:32:09;0.38;;;0.38;;
44784;SDS011;30507;53.160;8.210;2023-05-10T07:34:34;0.32;;;0.32;;
44784;SDS011;30507;53.160;8.210;2023-05-10T07:37:00;0.30;;;0.30;;
44784;SDS011;30507;53.160;8.210;2023-05-10T07:39:26;0.20;;;0.20;;
44784;SDS011;30507;53.160;8.210;2023-05-10T07:41:51;0.30;;;0.30;;
44784;SDS011;30507;53.160;8.210;2023-05-10T07:44:16;0.40;;;0.40;;
44784;SDS011;30507;53.160;8.210;2023-05-10T07:46:44;0.10;;;0.10;;
44784;SDS011;30507;53.160;8.210;2023-05-10T07:49:09;0.20;;;0.20;;
44784;SDS011;30507;53.160;8.210;2023-05-10T07:51:34;0.37;;;0.37;;
44784;SDS011;30507;53.160;8.210;2023-05-10T07:53:59;0.20;;;0.20;;
44784;SDS011;30507;53.160;8.210;2023-05-10T07:56:25;0.30;;;0.30;;
44784;SDS011;30507;53.160;8.210;2023-05-10T07:58:52;0.10;;;0.10;;
44784;SDS011;30507;53.160;8.210;2023-05-10T08:01:17;0.20;;;0.20;;
44784;SDS011;30507;53.160;8.210;2023-05-10T08:03:42;0.20;;;0.20;;
44784;SDS011;30507;53.160;8.210;2023-05-10T08:06:07;0.10;;;0.10;;
44784;SDS011;30507;53.160;8.210;2023-05-10T08:08:33;0.13;;;0.13;;
44784;SDS011;30507;53.160;8.210;2023-05-10T08:10:58;0.20;;;0.10;;
44784;SDS011;30507;53.160;8.210;2023-05-10T08:13:23;0.20;;;0.20;;
44784;SDS011;30507;53.160;8.210;2023-05-10T08:15:48;0.30;;;0.30;;
44784;SDS011;30507;53.160;8.210;2023-05-10T08:18:13;0.17;;;0.17;;
44784;SDS011;30507;53.160;8.210;2023-05-10T08:20:38;0.30;;;0.30;;
44784;SDS011;30507;53.160;8.210;2023-05-10T08:23:03;0.10;;;0.10;;
44784;SDS011;30507;53.160;8.210;2023-05-10T08:25:29;0.13;;;0.13;;
44784;SDS011;30507;53.160;8.210;2023-05-10T08:27:54;0.30;;;0.30;;
44784;SDS011;30507;53.160;8.210;2023-05-10T08:30:19;0.00;;;0.00;;
44784;SDS011;30507;53.160;8.210;2023-05-10T08:32:44;0.23;;;0.20;;
44784;SDS011;30507;53.160;8.210;2023-05-10T08:35:09;0.93;;;0.20;;
44784;SDS011;30507;53.160;8.210;2023-05-10T08:37:35;0.10;;;0.10;;
44784;SDS011;30507;53.160;8.210;2023-05-10T08:40:00;0.03;;;0.03;;
44784;SDS011;30507;53.160;8.210;2023-05-10T08:42:25;0.10;;;0.10;;
44784;SDS011;30507;53.160;8.210;2023-05-10T08:44:52;0.40;;;0.40;;
44784;SDS011;30507;53.160;8.210;2023-05-10T08:47:18;0.20;;;0.20;;
44784;SDS011;30507;53.160;8.210;2023-05-10T08:49:44;0.38;;;0.30;;
44784;SDS011;30507;53.160;8.210;2023-05-10T08:52:11;0.10;;;0.10;;
44784;SDS011;30507;53.160;8.210;2023-05-10T08:54:37;0.10;;;0.10;;
44784;SDS011;30507;53.160;8.210;2023-05-10T08:57:03;0.10;;;0.10;;
44784;SDS011;30507;53.160;8.210;2023-05-10T08:59:28;0.10;;;0.10;;
44784;SDS011;30507;53.160;8.210;2023-05-10T09:01:53;0.10;;;0.10;;
44784;SDS011;30507;53.160;8.210;2023-05-10T09:04:20;0.10;;;0.10;;
44784;SDS011;30507;53.160;8.210;2023-05-10T09:06:45;0.00;;;0.00;;
44784;SDS011;30507;53.160;8.210;2023-05-10T09:09:10;0.13;;;0.13;;
44784;SDS011;30507;53.160;8.210;2023-05-10T09:11:36;0.10;;;0.08;;
44784;SDS011;30507;53.160;8.210;2023-05-10T09:14:01;0.20;;;0.20;;
44784;SDS011;30507;53.160;8.210;2023-05-10T09:16:27;0.10;;;0.10;;
44784;SDS011;30507;53.160;8.210;2023-05-10T09:18:52;0.00;;;0.00;;
44784;SDS011;30507;53.160;8.210;2023-05-10T09:21:19;0.10;;;0.08;;
44784;SDS011;30507;53.160;8.210;2023-05-10T09:23:44;0.10;;;0.10;;
44784;SDS011;30507;53.160;8.210;2023-05-10T09:26:10;0.10;;;0.10;;
44784;SDS011;30507;53.160;8.210;2023-05-10T09:28:49;0.10;;;0.10;;
44784;SDS011;30507;53.160;8.210;2023-05-10T09:31:15;0.10;;;0.10;;
44784;SDS011;30507;53.160;8.210;2023-05-10T09:33:43;0.10;;;0.10;;
44784;SDS011;30507;53.160;8.210;2023-05-10T09:36:08;0.03;;;0.03;;
44784;SDS011;30507;53.160;8.210;2023-05-10T09:38:44;0.10;;;0.10;;
44784;SDS011;30507;53.160;8.210;2023-05-10T09:41:15;0.20;;;0.20;;
44784;SDS011;30507;53.160;8.210;2023-05-10T09:43:40;0.10;;;0.10;;
44784;SDS011;30507;53.160;8.210;2023-05-10T09:46:08;0.10;;;0.10;;
44784;SDS011;30507;53.160;8.210;2023-05-10T09:48:33;0.20;;;0.20;;
44784;SDS011;30507;53.160;8.210;2023-05-10T09:50:58;0.20;;;0.20;;
44784;SDS011;30507;53.160;8.210;2023-05-10T09:53:24;0.13;;;0.13;;
44784;SDS011;30507;53.160;8.210;2023-05-10T09:55:49;0.10;;;0.10;;
44784;SDS011;30507;53.160;8.210;2023-05-10T09:58:15;0.20;;;0.20;;
44784;SDS011;30507;53.160;8.210;2023-05-10T10:00:44;0.10;;;0.10;;
44784;SDS011;30507;53.160;8.210;2023-05-10T10:03:27;0.10;;;0.10;;
44784;SDS011;30507;53.160;8.210;2023-05-10T10:05:54;0.05;;;0.05;;
44784;SDS011;30507;53.160;8.210;2023-05-10T10:08:20;0.10;;;0.10;;
44784;SDS011;30507;53.160;8.210;2023-05-10T10:10:46;0.10;;;0.10;;
44784;SDS011;30507;53.160;8.210;2023-05-10T10:13:11;0.10;;;0.10;;
44784;SDS011;30507;53.160;8.210;2023-05-10T10:15:36;0.10;;;0.03;;
44784;SDS011;30507;53.160;8.210;2023-05-10T10:18:02;0.00;;;0.00;;
44784;SDS011;30507;53.160;8.210;2023-05-10T10:20:28;0.10;;;0.10;;
44784;SDS011;30507;53.160;8.210;2023-05-10T10:22:54;0.00;;;0.00;;
44784;SDS011;30507;53.160;8.210;2023-05-10T10:25:19;0.00;;;0.00;;
44784;SDS011;30507;53.160;8.210;2023-05-10T10:30:21;0.10;;;0.10;;
44784;SDS011;30507;53.160;8.210;2023-05-10T10:35:33;0.10;;;0.00;;
44784;SDS011;30507;53.160;8.210;2023-05-10T10:37:58;0.00;;;0.00;;
44784;SDS011;30507;53.160;8.210;2023-05-10T10:45:18;0.00;;;0.00;;
44784;SDS011;30507;53.160;8.210;2023-05-10T10:47:44;0.10;;;0.10;;
44784;SDS011;30507;53.160;8.210;2023-05-10T10:50:10;0.10;;;0.00;;
44784;SDS011;30507;53.160;8.210;2023-05-10T10:52:38;0.00;;;0.00;;
44784;SDS011;30507;53.160;8.210;2023-05-10T10:57:31;0.00;;;0.00;;
44784;SDS011;30507;53.160;8.210;2023-05-10T11:05:25;0.00;;;0.00;;
44784;SDS011;30507;53.160;8.210;2023-05-10T11:07:54;0.00;;;0.00;;
44784;SDS011;30507;53.160;8.210;2023-05-10T11:10:20;0.00;;;0.00;;
44784;SDS011;30507;53.160;8.210;2023-05-10T11:15:33;0.00;;;0.00;;
44784;SDS011;30507;53.160;8.210;2023-05-10T11:17:58;0.15;;;0.15;;
44784;SDS011;30507;53.160;8.210;2023-05-10T11:20:26;0.00;;;0.00;;
44784;SDS011;30507;53.160;8.210;2023-05-10T11:22:57;0.03;;;0.03;;
44784;SDS011;30507;53.160;8.210;2023-05-10T11:25:26;0.00;;;0.00;;
44784;SDS011;30507;53.160;8.210;2023-05-10T11:27:51;0.00;;;0.00;;
44784;SDS011;30507;53.160;8.210;2023-05-10T11:30:16;0.00;;;0.00;;
44784;SDS011;30507;53.160;8.210;2023-05-10T11:32:42;0.00;;;0.00;;
44784;SDS011;30507;53.160;8.210;2023-05-10T11:35:07;0.00;;;0.00;;
44784;SDS011;30507;53.160;8.210;2023-05-10T11:37:33;0.00;;;0.00;;
44784;SDS011;30507;53.160;8.210;2023-05-10T11:39:59;0.00;;;0.00;;
44784;SDS011;30507;53.160;8.210;2023-05-10T11:42:24;0.00;;;0.00;;
44784;SDS011;30507;53.160;8.210;2023-05-10T11:44:49;0.10;;;0.10;;
44784;SDS011;30507;53.160;8.210;2023-05-10T11:47:14;0.00;;;0.00;;
44784;SDS011;30507;53.160;8.210;2023-05-10T11:49:42;0.20;;;0.10;;
44784;SDS011;30507;53.160;8.210;2023-05-10T11:54:33;0.00;;;0.00;;
44784;SDS011;30507;53.160;8.210;2023-05-10T11:56:59;0.10;;;0.10;;
44784;SDS011;30507;53.160;8.210;2023-05-10T11:59:25;0.10;;;0.10;;
44784;SDS011;30507;53.160;8.210;2023-05-10T12:01:50;0.10;;;0.10;;
44784;SDS011;30507;53.160;8.210;2023-05-10T12:04:15;0.00;;;0.00;;
44784;SDS011;30507;53.160;8.210;2023-05-10T12:06:40;0.10;;;0.10;;
44784;SDS011;30507;53.160;8.210;2023-05-10T12:09:06;0.20;;;0.20;;
44784;SDS011;30507;53.160;8.210;2023-05-10T12:11:35;0.15;;;0.15;;
44784;SDS011;30507;53.160;8.210;2023-05-10T12:14:03;0.10;;;0.10;;
44784;SDS011;30507;53.160;8.210;2023-05-10T12:18:56;0.10;;;0.10;;
44784;SDS011;30507;53.160;8.210;2023-05-10T12:21:21;0.10;;;0.10;;
44784;SDS011;30507;53.160;8.210;2023-05-10T12:23:48;0.20;;;0.20;;
44784;SDS011;30507;53.160;8.210;2023-05-10T12:26:13;0.57;;;0.45;;
44784;SDS011;30507;53.160;8.210;2023-05-10T12:28:38;0.20;;;0.20;;
44784;SDS011;30507;53.160;8.210;2023-05-10T12:31:04;0.40;;;0.40;;
44784;SDS011;30507;53.160;8.210;2023-05-10T12:33:43;1.65;;;0.50;;
44784;SDS011;30507;53.160;8.210;2023-05-10T12:36:08;1.98;;;0.40;;
44784;SDS011;30507;53.160;8.210;2023-05-10T12:38:35;2.20;;;0.70;;
44784;SDS011;30507;53.160;8.210;2023-05-10T12:41:03;1.92;;;0.57;;
44784;SDS011;30507;53.160;8.210;2023-05-10T12:43:28;1.17;;;0.40;;
44784;SDS011;30507;53.160;8.210;2023-05-10T12:45:53;2.20;;;0.50;;
44784;SDS011;30507;53.160;8.210;2023-05-10T12:48:19;0.53;;;0.53;;
44784;SDS011;30507;53.160;8.210;2023-05-10T12:50:44;0.43;;;0.30;;
44784;SDS011;30507;53.160;8.210;2023-05-10T12:53:09;0.43;;;0.38;;
44784;SDS011;30507;53.160;8.210;2023-05-10T12:55:34;0.67;;;0.40;;
44784;SDS011;30507;53.160;8.210;2023-05-10T12:58:00;0.82;;;0.80;;
44784;SDS011;30507;53.160;8.210;2023-05-10T13:00:25;3.92;;;0.57;;
44784;SDS011;30507;53.160;8.210;2023-05-10T13:02:50;0.80;;;0.80;;
44784;SDS011;30507;53.160;8.210;2023-05-10T13:05:15;0.40;;;0.40;;
44784;SDS011;30507;53.160;8.210;2023-05-10T13:07:40;0.65;;;0.30;;
44784;SDS011;30507;53.160;8.210;2023-05-10T13:10:06;1.60;;;0.47;;
44784;SDS011;30507;53.160;8.210;2023-05-10T13:12:31;0.85;;;0.30;;
44784;SDS011;30507;53.160;8.210;2023-05-10T13:14:56;0.35;;;0.20;;
44784;SDS011;30507;53.160;8.210;2023-05-10T13:17:21;0.60;;;0.60;;
44784;SDS011;30507;53.160;8.210;2023-05-10T13:19:47;1.95;;;0.40;;
44784;SDS011;30507;53.160;8.210;2023-05-10T13:22:12;0.40;;;0.37;;
44784;SDS011;30507;53.160;8.210;2023-05-10T13:24:37;1.67;;;0.77;;
44784;SDS011;30507;53.160;8.210;2023-05-10T13:27:02;0.45;;;0.35;;
44784;SDS011;30507;53.160;8.210;2023-05-10T13:29:28;0.33;;;0.20;;
44784;SDS011;30507;53.160;8.210;2023-05-10T13:31:53;0.63;;;0.40;;
44784;SDS011;30507;53.160;8.210;2023-05-10T13:34:18;0.27;;;0.27;;
44784;SDS011;30507;53.160;8.210;2023-05-10T13:36:45;0.82;;;0.77;;
44784;SDS011;30507;53.160;8.210;2023-05-10T13:39:10;0.70;;;0.43;;
44784;SDS011;30507;53.160;8.210;2023-05-10T13:41:35;0.40;;;0.40;;
44784;SDS011;30507;53.160;8.210;2023-05-10T13:44:01;0.57;;;0.57;;
44784;SDS011;30507;53.160;8.210;2023-05-10T13:46:26;0.30;;;0.30;;
44784;SDS011;30507;53.160;8.210;2023-05-10T13:48:52;0.20;;;0.20;;
44784;SDS011;30507;53.160;8.210;2023-05-10T13:51:17;0.77;;;0.45;;
44784;SDS011;30507;53.160;8.210;2023-05-10T13:53:42;0.20;;;0.20;;
44784;SDS011;30507;53.160;8.210;2023-05-10T13:56:07;0.50;;;0.50;;
44784;SDS011;30507;53.160;8.210;2023-05-10T13:58:32;0.20;;;0.20;;
44784;SDS011;30507;53.160;8.210;2023-05-10T14:00:57;0.43;;;0.43;;
44784;SDS011;30507;53.160;8.210;2023-05-10T14:03:22;0.30;;;0.23;;
44784;SDS011;30507;53.160;8.210;2023-05-10T14:05:48;0.20;;;0.20;;
44784;SDS011;30507;53.160;8.210;2023-05-10T14:08:13;0.90;;;0.50;;
44784;SDS011;30507;53.160;8.210;2023-05-10T14:10:38;0.63;;;0.33;;
44784;SDS011;30507;53.160;8.210;2023-05-10T14:13:04;1.40;;;0.40;;
44784;SDS011;30507;53.160;8.210;2023-05-10T14:15:29;0.83;;;0.30;;
44784;SDS011;30507;53.160;8.210;2023-05-10T14:17:54;0.83;;;0.20;;
44784;SDS011;30507;53.160;8.210;2023-05-10T14:20:20;0.45;;;0.30;;
44784;SDS011;30507;53.160;8.210;2023-05-10T14:22:45;0.50;;;0.43;;
44784;SDS011;30507;53.160;8.210;2023-05-10T14:25:10;0.35;;;0.35;;
44784;SDS011;30507;53.160;8.210;2023-05-10T14:27:36;0.82;;;0.30;;
44784;SDS011;30507;53.160;8.210;2023-05-10T14:30:01;0.20;;;0.20;;
44784;SDS011;30507;53.160;8.210;2023-05-10T14:32:26;0.40;;;0.40;;
44784;SDS011;30507;53.160;8.210;2023-05-10T14:34:52;0.22;;;0.22;;
44784;SDS011;30507;53.160;8.210;2023-05-10T14:37:17;0.30;;;0.30;;
44784;SDS011;30507;53.160;8.210;2023-05-10T14:39:43;0.77;;;0.67;;
44784;SDS011;30507;53.160;8.210;2023-05-10T14:42:08;0.43;;;0.43;;
44784;SDS011;30507;53.160;8.210;2023-05-10T14:44:33;0.20;;;0.20;;
44784;SDS011;30507;53.160;8.210;2023-05-10T14:46:58;0.87;;;0.57;;
44784;SDS011;30507;53.160;8.210;2023-05-10T14:49:24;0.50;;;0.38;;
44784;SDS011;30507;53.160;8.210;2023-05-10T14:51:50;0.40;;;0.40;;
44784;SDS011;30507;53.160;8.210;2023-05-10T14:54:15;0.37;;;0.37;;
44784;SDS011;30507;53.160;8.210;2023-05-10T14:56:41;1.17;;;0.25;;
44784;SDS011;30507;53.160;8.210;2023-05-10T14:59:06;0.68;;;0.68;;
44784;SDS011;30507;53.160;8.210;2023-05-10T15:01:31;0.30;;;0.30;;
44784;SDS011;30507;53.160;8.210;2023-05-10T15:03:57;0.38;;;0.38;;
44784;SDS011;30507;53.160;8.210;2023-05-10T15:06:23;0.43;;;0.43;;
44784;SDS011;30507;53.160;8.210;2023-05-10T15:08:50;0.57;;;0.57;;
44784;SDS011;30507;53.160;8.210;2023-05-10T15:11:16;0.28;;;0.20;;